createdAt,value
2023-03-21T00:01:58.637Z,8.80
2023-03-21T00:04:33.203Z,8.80
2023-03-21T00:07:06.030Z,8.80
2023-03-21T00:09:34.025Z,8.80
2023-03-21T00:12:02.136Z,8.80
2023-03-21T00:14:31.131Z,8.80
2023-03-21T00:16:59.053Z,8.80
2023-03-21T00:19:29.450Z,8.80
2023-03-21T00:22:07.669Z,8.80
2023-03-21T00:24:37.779Z,8.80
2023-03-21T00:27:30.237Z,8.80
2023-03-21T00:29:56.938Z,8.80
2023-03-21T00:32:24.584Z,8.80
2023-03-21T00:35:23.281Z,8.90
2023-03-21T00:37:40.498Z,8.80
2023-03-21T00:40:23.133Z,8.90
2023-03-21T00:42:53.462Z,8.80
2023-03-21T00:45:22.454Z,8.80
2023-03-21T00:47:50.490Z,8.80
2023-03-21T00:50:18.723Z,8.80
2023-03-21T00:52:46.372Z,8.80
2023-03-21T00:55:16.415Z,8.90
2023-03-21T00:57:50.178Z,8.80
2023-03-21T01:00:25.675Z,8.80
2023-03-21T01:03:17.626Z,8.80
2023-03-21T01:06:07.590Z,8.70
2023-03-21T01:08:52.305Z,8.70
2023-03-21T01:11:26.501Z,8.60
2023-03-21T01:14:01.874Z,8.60
2023-03-21T01:16:33.047Z,8.60
2023-03-21T01:19:03.349Z,8.60
2023-03-21T01:21:33.171Z,8.50
2023-03-21T01:24:04.518Z,8.50
2023-03-21T01:26:32.394Z,8.50
2023-03-21T01:29:00.599Z,8.50
2023-03-21T01:31:28.527Z,8.50
2023-03-21T01:33:56.229Z,8.50
2023-03-21T01:36:26.760Z,8.50
2023-03-21T01:39:00.177Z,8.50
2023-03-21T01:41:42.577Z,8.50
2023-03-21T01:44:31.852Z,8.40
2023-03-21T01:47:10.992Z,8.50
2023-03-21T01:50:01.905Z,8.50
2023-03-21T01:52:53.274Z,8.50
2023-03-21T01:55:28.740Z,8.50
2023-03-21T01:58:11.468Z,8.50
2023-03-21T02:00:51.628Z,8.40
2023-03-21T02:03:50.782Z,8.40
2023-03-21T02:06:44.104Z,8.40
2023-03-21T02:09:28.318Z,8.40
2023-03-21T02:11:56.446Z,8.40
2023-03-21T02:14:30.724Z,8.40
2023-03-21T02:17:32.351Z,8.40
2023-03-21T02:20:39.239Z,8.40
2023-03-21T02:23:07.915Z,8.40
2023-03-21T02:26:13.278Z,8.40
2023-03-21T02:28:49.315Z,8.40
2023-03-21T02:31:34.343Z,8.40
2023-03-21T02:34:30.392Z,8.40
2023-03-21T02:37:17.129Z,8.40
2023-03-21T02:40:08.090Z,8.40
2023-03-21T02:43:22.104Z,8.40
2023-03-21T02:46:16.077Z,8.40
2023-03-21T02:48:57.348Z,8.40
2023-03-21T02:51:28.871Z,8.40
2023-03-21T02:54:28.327Z,8.40
2023-03-21T02:56:59.336Z,8.40
2023-03-21T02:59:28.976Z,8.40
2023-03-21T03:02:00.466Z,8.40
2023-03-21T03:04:29.535Z,8.40
2023-03-21T03:07:02.623Z,8.40
2023-03-21T03:09:49.951Z,8.30
2023-03-21T03:12:46.106Z,8.30
2023-03-21T03:15:18.129Z,8.30
2023-03-21T03:18:21.131Z,8.30
2023-03-21T03:21:22.679Z,8.30
2023-03-21T03:24:13.204Z,8.30
2023-03-21T03:26:51.504Z,8.30
2023-03-21T03:29:22.395Z,8.30
2023-03-21T03:31:59.887Z,8.30
2023-03-21T03:34:39.742Z,8.30
2023-03-21T03:37:14.587Z,8.30
2023-03-21T03:39:52.102Z,8.30
2023-03-21T03:42:28.769Z,8.30
2023-03-21T03:45:10.164Z,8.30
2023-03-21T03:47:56.253Z,8.30
2023-03-21T03:50:45.030Z,8.30
2023-03-21T03:53:44.839Z,8.30
2023-03-21T03:56:14.045Z,8.30
2023-03-21T03:58:46.008Z,8.30
2023-03-21T04:01:18.114Z,8.30
2023-03-21T04:04:03.574Z,8.30
2023-03-21T04:06:39.069Z,8.30
2023-03-21T04:09:19.225Z,8.20
2023-03-21T04:11:49.479Z,8.20
2023-03-21T04:14:17.787Z,8.20
2023-03-21T04:16:47.076Z,8.20
2023-03-21T04:19:18.762Z,8.30
2023-03-21T04:21:47.801Z,8.30
2023-03-21T04:24:18.868Z,8.30
2023-03-21T04:26:50.273Z,8.30
2023-03-21T04:29:39.652Z,8.30
2023-03-21T04:32:26.650Z,8.30
2023-03-21T04:35:08.692Z,8.30
2023-03-21T04:37:37.269Z,8.30
2023-03-21T04:40:07.859Z,8.30
2023-03-21T04:42:36.074Z,8.30
2023-03-21T04:45:04.559Z,8.30
2023-03-21T04:47:32.500Z,8.30
2023-03-21T04:50:01.314Z,8.30
2023-03-21T04:52:29.183Z,8.30
2023-03-21T04:54:57.896Z,8.20
2023-03-21T04:57:25.929Z,8.20
2023-03-21T04:59:53.937Z,8.20
2023-03-21T05:02:23.028Z,8.20
2023-03-21T05:04:51.587Z,8.20
2023-03-21T05:07:19.420Z,8.20
2023-03-21T05:09:47.599Z,8.20
2023-03-21T05:12:19.748Z,8.20
2023-03-21T05:14:50.834Z,8.20
2023-03-21T05:17:23.439Z,8.20
2023-03-21T05:19:53.244Z,8.20
2023-03-21T05:22:21.724Z,8.20
2023-03-21T05:24:50.524Z,8.20
2023-03-21T05:27:45.960Z,8.30
2023-03-21T05:30:24.306Z,8.30
2023-03-21T05:32:57.892Z,8.30
2023-03-21T05:35:26.969Z,8.30
2023-03-21T05:37:57.797Z,8.30
2023-03-21T05:40:28.539Z,8.30
2023-03-21T05:42:58.676Z,8.40
2023-03-21T05:45:27.556Z,8.40
2023-03-21T05:47:56.496Z,8.40
2023-03-21T05:50:29.733Z,8.40
2023-03-21T05:53:10.227Z,8.40
2023-03-21T05:55:39.931Z,8.50
2023-03-21T05:58:13.373Z,8.50
2023-03-21T06:00:46.012Z,8.50
2023-03-21T06:03:25.230Z,8.50
2023-03-21T06:05:59.950Z,8.60
2023-03-21T06:08:34.603Z,8.60
2023-03-21T06:11:02.989Z,8.60
2023-03-21T06:13:33.504Z,8.60
2023-03-21T06:16:02.083Z,8.60
2023-03-21T06:18:29.956Z,8.60
2023-03-21T06:21:16.648Z,8.70
2023-03-21T06:23:44.457Z,8.70
2023-03-21T06:26:13.201Z,8.70
2023-03-21T06:28:41.144Z,8.70
2023-03-21T06:31:09.226Z,8.80
2023-03-21T06:33:37.182Z,8.80
2023-03-21T06:36:05.658Z,8.80
2023-03-21T06:38:33.883Z,8.90
2023-03-21T06:41:04.909Z,8.90
2023-03-21T06:43:38.334Z,9.00
2023-03-21T06:46:06.638Z,9.00
2023-03-21T06:48:34.766Z,9.00
2023-03-21T06:51:02.922Z,9.00
2023-03-21T06:53:34.563Z,9.10
2023-03-21T06:56:27.177Z,9.10
2023-03-21T06:58:55.109Z,9.20
2023-03-21T07:01:40.931Z,9.20
2023-03-21T07:04:09.225Z,9.40
2023-03-21T07:06:37.540Z,9.40
2023-03-21T07:09:06.317Z,9.40
2023-03-21T07:11:36.948Z,9.30
2023-03-21T07:14:06.838Z,9.30
2023-03-21T07:16:35.319Z,9.30
2023-03-21T07:19:03.396Z,9.40
2023-03-21T07:21:31.540Z,9.40
2023-03-21T07:23:59.360Z,9.40
2023-03-21T07:26:27.543Z,9.40
2023-03-21T07:28:55.322Z,9.40
2023-03-21T07:31:26.326Z,9.40
2023-03-21T07:33:54.492Z,9.40
2023-03-21T07:36:24.037Z,9.40
2023-03-21T07:38:51.885Z,9.50
2023-03-21T07:41:24.905Z,9.60
2023-03-21T07:43:52.727Z,9.80
2023-03-21T07:46:21.195Z,9.90
2023-03-21T07:48:49.648Z,10.00
2023-03-21T07:51:17.889Z,10.00
2023-03-21T07:53:48.893Z,10.00
2023-03-21T07:56:17.153Z,9.90
2023-03-21T07:58:45.092Z,9.80
2023-03-21T08:01:13.299Z,9.70
2023-03-21T08:03:40.972Z,9.60
2023-03-21T08:06:09.783Z,9.70
2023-03-21T08:08:37.848Z,9.80
2023-03-21T08:11:06.735Z,10.00
2023-03-21T08:13:34.687Z,10.10
2023-03-21T08:16:02.803Z,10.20
2023-03-21T08:18:30.652Z,10.30
2023-03-21T08:20:58.896Z,10.30
2023-03-21T08:23:27.438Z,10.20
2023-03-21T08:25:56.196Z,10.20
2023-03-21T08:28:24.287Z,10.10
2023-03-21T08:30:52.510Z,10.00
2023-03-21T08:33:20.794Z,9.80
2023-03-21T08:35:49.075Z,9.70
2023-03-21T08:38:17.378Z,9.60
2023-03-21T08:40:45.544Z,9.60
2023-03-21T08:43:14.843Z,9.60
2023-03-21T08:45:42.941Z,9.60
2023-03-21T08:48:10.822Z,9.60
2023-03-21T08:50:38.931Z,9.60
2023-03-21T08:53:06.827Z,9.60
2023-03-21T08:55:35.598Z,9.60
2023-03-21T08:58:04.094Z,9.60
2023-03-21T09:00:32.679Z,9.70
2023-03-21T09:03:00.391Z,9.80
2023-03-21T09:05:28.695Z,9.90
2023-03-21T09:07:56.575Z,10.10
2023-03-21T09:10:24.856Z,10.20
2023-03-21T09:12:58.012Z,10.40
2023-03-21T09:15:29.262Z,10.60
2023-03-21T09:17:58.997Z,10.80
2023-03-21T09:20:31.430Z,11.00
2023-03-21T09:23:02.119Z,11.10
2023-03-21T09:25:31.914Z,11.40
2023-03-21T09:28:00.909Z,11.50
2023-03-21T09:30:29.786Z,11.60
2023-03-21T09:32:58.927Z,11.60
2023-03-21T09:35:52.563Z,11.50
2023-03-21T09:38:20.984Z,11.70
2023-03-21T09:40:58.550Z,11.80
2023-03-21T09:43:35.758Z,11.80
2023-03-21T09:46:19.789Z,11.60
2023-03-21T09:49:01.898Z,11.40
2023-03-21T09:51:36.012Z,11.50
2023-03-21T09:54:12.373Z,11.70
2023-03-21T09:56:43.439Z,11.70
2023-03-21T09:59:21.288Z,11.90
2023-03-21T10:01:51.061Z,12.00
2023-03-21T10:04:20.596Z,12.00
2023-03-21T10:06:58.318Z,11.90
2023-03-21T10:09:28.438Z,11.90
2023-03-21T10:12:02.294Z,11.70
2023-03-21T10:14:40.824Z,11.50
2023-03-21T10:17:11.677Z,11.40
2023-03-21T10:19:39.468Z,11.10
2023-03-21T10:22:09.504Z,11.20
2023-03-21T10:24:37.564Z,11.20
2023-03-21T10:27:05.885Z,11.20
2023-03-21T10:29:46.552Z,11.40
2023-03-21T10:32:17.906Z,11.70
2023-03-21T10:34:48.167Z,11.90
2023-03-21T10:37:17.025Z,12.00
2023-03-21T10:39:47.908Z,12.10
2023-03-21T10:42:24.279Z,12.50
2023-03-21T10:44:54.783Z,12.70
2023-03-21T10:47:27.119Z,12.90
2023-03-21T10:50:11.483Z,13.00
2023-03-21T10:52:51.962Z,13.10
2023-03-21T10:55:42.317Z,13.30
2023-03-21T10:58:19.147Z,13.50
2023-03-21T11:00:48.317Z,13.40
2023-03-21T11:03:23.549Z,13.30
2023-03-21T11:05:57.826Z,13.30
2023-03-21T11:08:27.577Z,13.30
2023-03-21T11:11:07.835Z,13.20
2023-03-21T11:13:43.566Z,13.10
2023-03-21T11:16:12.387Z,13.30
2023-03-21T11:18:43.312Z,13.50
2023-03-21T11:21:13.768Z,14.00
2023-03-21T11:23:48.426Z,14.90
2023-03-21T11:26:52.667Z,15.60
2023-03-21T11:29:27.925Z,16.00
2023-03-21T11:32:02.920Z,16.10
2023-03-21T11:34:55.256Z,15.80
2023-03-21T11:37:36.817Z,15.20
2023-03-21T11:40:24.439Z,14.70
2023-03-21T11:43:18.489Z,14.20
2023-03-21T11:46:08.197Z,13.90
2023-03-21T11:48:44.865Z,13.50
2023-03-21T11:51:44.689Z,13.00
2023-03-21T11:54:16.525Z,12.50
2023-03-21T11:56:53.275Z,12.10
2023-03-21T11:59:59.597Z,11.70
2023-03-21T12:02:37.955Z,11.50
2023-03-21T12:05:16.849Z,11.30
2023-03-21T12:08:24.299Z,11.20
2023-03-21T12:11:05.203Z,11.10
2023-03-21T12:14:01.066Z,11.10
2023-03-21T12:17:02.097Z,11.00
2023-03-21T12:19:46.910Z,10.90
2023-03-21T12:22:33.366Z,10.90
2023-03-21T12:25:29.247Z,10.90
2023-03-21T12:28:05.818Z,11.00
2023-03-21T12:31:02.516Z,11.10
2023-03-21T12:34:00.968Z,12.00
2023-03-21T12:36:50.250Z,12.90
2023-03-21T12:39:33.271Z,13.80
2023-03-21T12:42:01.358Z,14.30
2023-03-21T12:44:37.902Z,14.20
2023-03-21T12:47:12.214Z,13.90
2023-03-21T12:49:54.015Z,13.50
2023-03-21T12:52:40.707Z,13.30
2023-03-21T12:55:15.234Z,13.20
2023-03-21T12:57:57.149Z,13.30
2023-03-21T13:00:51.242Z,13.60
2023-03-21T13:03:45.773Z,14.10
2023-03-21T13:06:18.645Z,14.70
2023-03-21T13:09:21.276Z,15.50
2023-03-21T13:11:54.721Z,15.80
2023-03-21T13:14:27.010Z,16.00
2023-03-21T13:17:10.649Z,15.70
2023-03-21T13:19:50.368Z,15.60
2023-03-21T13:22:27.999Z,15.50
2023-03-21T13:25:03.894Z,15.50
2023-03-21T13:27:34.364Z,15.50
2023-03-21T13:30:22.844Z,15.50
2023-03-21T13:32:52.674Z,15.00
2023-03-21T13:35:27.776Z,14.70
2023-03-21T13:38:14.393Z,14.40
2023-03-21T13:40:57.248Z,13.90
2023-03-21T13:43:51.725Z,13.50
2023-03-21T13:46:26.668Z,13.50
2023-03-21T13:49:00.033Z,14.10
2023-03-21T13:51:56.545Z,14.70
2023-03-21T13:54:34.727Z,16.00
2023-03-21T13:57:06.306Z,17.00
2023-03-21T13:59:40.108Z,17.50
2023-03-21T14:02:26.959Z,17.80
2023-03-21T14:05:22.261Z,17.60
2023-03-21T14:08:06.033Z,17.40
2023-03-21T14:10:42.663Z,17.40
2023-03-21T14:13:16.919Z,17.20
2023-03-21T14:15:55.366Z,17.50
2023-03-21T14:18:52.260Z,17.70
2023-03-21T14:21:24.240Z,17.40
2023-03-21T14:24:05.025Z,16.80
2023-03-21T14:26:36.723Z,16.10
2023-03-21T14:29:12.396Z,15.80
2023-03-21T14:31:48.647Z,15.60
2023-03-21T14:34:17.792Z,15.60
2023-03-21T14:36:55.407Z,15.60
2023-03-21T14:39:30.207Z,15.60
2023-03-21T14:42:07.397Z,15.60
2023-03-21T14:44:58.138Z,15.50
2023-03-21T14:47:28.450Z,15.50
2023-03-21T14:49:58.371Z,15.30
2023-03-21T14:52:34.592Z,15.20
2023-03-21T14:55:06.340Z,14.80
2023-03-21T14:57:34.410Z,14.60
2023-03-21T15:00:13.088Z,14.50
2023-03-21T15:02:44.009Z,14.30
2023-03-21T15:05:27.612Z,14.00
2023-03-21T15:08:01.055Z,13.80
2023-03-21T15:10:31.331Z,13.70
2023-03-21T15:13:01.603Z,13.60
2023-03-21T15:15:32.453Z,13.60
2023-03-21T15:18:05.545Z,13.60
2023-03-21T15:20:37.785Z,13.60
2023-03-21T15:23:26.644Z,13.70
2023-03-21T15:25:55.128Z,13.70
2023-03-21T15:28:22.891Z,13.70
2023-03-21T15:30:52.892Z,13.70
2023-03-21T15:33:24.042Z,13.70
2023-03-21T15:35:55.870Z,13.60
2023-03-21T15:38:45.375Z,13.70
2023-03-21T15:41:23.252Z,13.80
2023-03-21T15:44:00.221Z,13.90
2023-03-21T15:46:33.142Z,13.90
2023-03-21T15:49:16.319Z,13.90
2023-03-21T15:51:53.961Z,13.70
2023-03-21T15:54:31.063Z,13.60
2023-03-21T15:57:09.637Z,13.50
2023-03-21T15:59:42.142Z,13.30
2023-03-21T16:02:19.867Z,13.30
2023-03-21T16:05:21.974Z,13.20
2023-03-21T16:07:50.150Z,13.10
2023-03-21T16:10:34.096Z,13.10
2023-03-21T16:13:02.621Z,13.10
2023-03-21T16:15:30.947Z,13.10
2023-03-21T16:18:02.004Z,13.00
2023-03-21T16:20:40.723Z,12.90
2023-03-21T16:23:13.731Z,12.80
2023-03-21T16:25:43.898Z,12.70
2023-03-21T16:28:18.168Z,12.70
2023-03-21T16:30:46.037Z,12.60
2023-03-21T16:33:14.648Z,12.50
2023-03-21T16:35:42.491Z,12.50
2023-03-21T16:38:12.801Z,12.50
2023-03-21T16:40:43.740Z,12.50
2023-03-21T16:43:12.146Z,12.50
2023-03-21T16:45:40.134Z,12.50
2023-03-21T16:48:09.238Z,12.30
2023-03-21T16:50:42.863Z,12.20
2023-03-21T16:53:11.124Z,12.00
2023-03-21T16:55:39.121Z,11.90
2023-03-21T16:58:07.555Z,11.80
2023-03-21T17:00:37.873Z,11.70
2023-03-21T17:03:14.627Z,11.70
2023-03-21T17:05:42.699Z,11.60
2023-03-21T17:08:17.016Z,11.50
2023-03-21T17:10:45.341Z,11.50
2023-03-21T17:13:13.763Z,11.40
2023-03-21T17:15:42.402Z,11.40
2023-03-21T17:18:12.139Z,11.30
2023-03-21T17:20:42.019Z,11.30
2023-03-21T17:23:11.724Z,11.20
2023-03-21T17:25:40.368Z,11.20
2023-03-21T17:28:09.225Z,11.10
2023-03-21T17:30:40.806Z,11.10
2023-03-21T17:33:09.924Z,11.10
2023-03-21T17:35:38.219Z,11.00
2023-03-21T17:38:13.737Z,11.00
2023-03-21T17:40:42.326Z,10.90
2023-03-21T17:43:17.419Z,10.80
2023-03-21T17:45:46.172Z,10.80
2023-03-21T17:48:16.935Z,10.80
2023-03-21T17:50:44.792Z,10.80
2023-03-21T17:53:12.720Z,10.80
2023-03-21T17:55:40.433Z,10.70
2023-03-21T17:58:12.563Z,10.70
2023-03-21T18:00:42.711Z,10.70
2023-03-21T18:03:11.092Z,10.70
2023-03-21T18:05:39.800Z,10.60
2023-03-21T18:08:11.174Z,10.60
2023-03-21T18:10:41.165Z,10.60
2023-03-21T18:13:10.057Z,10.60
2023-03-21T18:15:38.569Z,10.60
2023-03-21T18:18:07.359Z,10.50
2023-03-21T18:20:54.056Z,10.50
2023-03-21T18:23:23.452Z,10.50
2023-03-21T18:25:53.790Z,10.40
2023-03-21T18:28:24.347Z,10.40
2023-03-21T18:31:08.581Z,10.40
2023-03-21T18:33:41.861Z,10.40
2023-03-21T18:36:14.095Z,10.40
2023-03-21T18:38:45.401Z,10.40
2023-03-21T18:41:16.085Z,10.30
2023-03-21T18:44:01.602Z,10.30
2023-03-21T18:46:42.682Z,10.30
2023-03-21T18:49:51.895Z,10.30
2023-03-21T18:52:02.520Z,10.30
2023-03-21T18:54:33.945Z,10.30
2023-03-21T18:59:56.315Z,10.30
2023-03-21T19:02:25.905Z,10.30
2023-03-21T19:05:00.197Z,10.30
2023-03-21T19:07:31.311Z,10.30
2023-03-21T19:10:16.923Z,10.30
2023-03-21T19:12:48.834Z,10.20
2023-03-21T19:15:29.487Z,10.20
2023-03-21T19:20:55.687Z,10.20
2023-03-21T19:23:40.904Z,10.20
2023-03-21T19:26:19.312Z,10.20
2023-03-21T19:28:48.995Z,10.10
2023-03-21T19:31:24.634Z,10.10
2023-03-21T19:33:53.829Z,10.10
2023-03-21T19:36:26.201Z,10.10
2023-03-21T19:38:55.599Z,10.10
2023-03-21T19:41:26.416Z,10.10
2023-03-21T19:43:56.639Z,10.00
2023-03-21T19:46:27.218Z,10.00
2023-03-21T19:48:57.509Z,10.10
2023-03-21T19:51:30.451Z,10.00
2023-03-21T19:54:06.840Z,10.10
2023-03-21T19:56:38.334Z,10.00
2023-03-21T19:59:17.334Z,10.00
2023-03-21T20:01:56.475Z,10.00
2023-03-21T20:04:28.473Z,10.00
2023-03-21T20:07:00.935Z,9.90
2023-03-21T20:09:50.836Z,9.90
2023-03-21T20:12:24.441Z,9.80
2023-03-21T20:15:01.576Z,9.80
2023-03-21T20:17:39.273Z,9.90
2023-03-21T20:20:16.080Z,9.80
2023-03-21T20:25:47.719Z,9.80
2023-03-21T20:28:25.527Z,9.70
2023-03-21T20:30:59.561Z,9.70
2023-03-21T20:33:30.533Z,9.70
2023-03-21T20:38:53.911Z,9.60
2023-03-21T20:41:22.950Z,9.60
2023-03-21T20:46:50.237Z,9.60
2023-03-21T20:49:24.072Z,9.60
2023-03-21T20:54:48.385Z,9.60
2023-03-21T20:57:20.462Z,9.60
2023-03-21T20:59:51.560Z,9.60
2023-03-21T21:02:21.618Z,9.60
2023-03-21T21:05:23.804Z,9.60
2023-03-21T21:07:44.828Z,9.60
2023-03-21T21:10:15.809Z,9.60
2023-03-21T21:12:48.856Z,9.60
2023-03-21T21:15:17.689Z,9.60
2023-03-21T21:18:05.537Z,9.60
2023-03-21T21:20:35.866Z,9.60
2023-03-21T21:23:04.326Z,9.60
2023-03-21T21:25:34.810Z,9.60
2023-03-21T21:28:03.795Z,9.60
2023-03-21T21:30:34.208Z,9.60
2023-03-21T21:33:01.996Z,9.60
2023-03-21T21:35:30.383Z,9.60
2023-03-21T21:37:58.516Z,9.60
2023-03-21T21:40:26.609Z,9.60
2023-03-21T21:42:54.699Z,9.50
2023-03-21T21:45:22.932Z,9.50
2023-03-21T21:47:51.317Z,9.50
2023-03-21T21:50:22.047Z,9.50
2023-03-21T21:52:54.725Z,9.50
2023-03-21T21:55:23.072Z,9.50
2023-03-21T21:57:51.023Z,9.50
2023-03-21T22:00:19.957Z,9.50
2023-03-21T22:02:48.043Z,9.50
2023-03-21T22:05:19.225Z,9.50
2023-03-21T22:07:48.762Z,9.50
2023-03-21T22:10:16.500Z,9.50
2023-03-21T22:12:44.630Z,9.50
2023-03-21T22:15:13.427Z,9.50
2023-03-21T22:17:41.936Z,9.50
2023-03-21T22:20:12.300Z,9.50
2023-03-21T22:22:40.722Z,9.50
2023-03-21T22:25:12.185Z,9.60
2023-03-21T22:27:40.813Z,9.60
2023-03-21T22:30:14.179Z,9.60
2023-03-21T22:32:42.441Z,9.60
2023-03-21T22:35:11.216Z,9.70
2023-03-21T22:37:41.562Z,9.70
2023-03-21T22:40:13.501Z,9.70
2023-03-21T22:42:42.370Z,9.70
2023-03-21T22:45:12.850Z,9.70
2023-03-21T22:47:40.892Z,9.70
2023-03-21T22:50:09.309Z,9.70
2023-03-21T22:52:37.516Z,9.70
2023-03-21T22:55:05.956Z,9.70
2023-03-21T22:57:34.175Z,9.70
2023-03-21T23:00:01.863Z,9.80
2023-03-21T23:02:29.943Z,9.80
2023-03-21T23:04:57.822Z,9.80
2023-03-21T23:07:26.091Z,9.80
2023-03-21T23:09:53.819Z,9.90
2023-03-21T23:12:21.834Z,9.90
2023-03-21T23:14:49.480Z,10.00
2023-03-21T23:17:17.578Z,9.90
2023-03-21T23:19:45.535Z,10.00
2023-03-21T23:22:13.602Z,10.00
2023-03-21T23:24:41.401Z,10.00
2023-03-21T23:27:09.503Z,10.00
2023-03-21T23:29:37.099Z,10.10
2023-03-21T23:32:05.747Z,10.10
2023-03-21T23:34:33.535Z,10.20
2023-03-21T23:37:01.623Z,10.20
2023-03-21T23:39:29.435Z,10.20
2023-03-21T23:41:58.805Z,10.30
2023-03-21T23:44:26.753Z,10.40
2023-03-21T23:46:55.511Z,10.40
2023-03-21T23:49:23.167Z,10.40
2023-03-21T23:51:51.333Z,10.40
2023-03-21T23:54:18.918Z,10.40
2023-03-21T23:56:46.900Z,10.40
2023-03-21T23:59:14.552Z,10.40
